Time;durP1;ratioP1;P1;durP2;ratioP2;P2;SDS_P1;SDS_P2;PMS_P1;PMS_P2;Temp;Humidity;BMP_temperature;BMP_pressure;BME280_temperature;BME280_humidity;BME280_pressure;Samples;Min_cycle;Max_cycle;Signal;HPM_P1;HPM_P2
2021/06/08 00:02:00;;;;;;;1.50;0.97;;;17.60;98.20;;;;;;5048769;28;20499;-78
2021/06/08 00:04:26;;;;;;;1.50;0.90;;;17.60;98.20;;;;;;5069810;28;20501;-78
2021/06/08 00:06:53;;;;;;;1.50;1.00;;;17.60;98.20;;;;;;5038015;28;20487;-79
2021/06/08 00:09:20;;;;;;;1.50;0.90;;;17.60;98.20;;;;;;5049602;28;20474;-78
2021/06/08 00:11:46;;;;;;;1.50;0.90;;;17.60;98.20;;;;;;5038737;28;20478;-79
2021/06/08 00:14:14;;;;;;;1.50;0.90;;;17.60;98.20;;;;;;5049556;28;20502;-79
2021/06/08 00:16:41;;;;;;;1.50;0.90;;;17.60;98.20;;;;;;5046094;28;20480;-78
2021/06/08 00:19:07;;;;;;;1.50;1.00;;;17.60;98.20;;;;;;5056879;28;20749;-79
2021/06/08 00:21:34;;;;;;;1.50;1.00;;;17.60;98.20;;;;;;5036114;28;21008;-79
2021/06/08 00:24:02;;;;;;;1.50;1.07;;;17.60;98.20;;;;;;5051807;28;20882;-78
2021/06/08 00:26:29;;;;;;;1.50;0.90;;;17.60;98.20;;;;;;5039678;28;20485;-78
2021/06/08 00:28:56;;;;;;;1.50;1.00;;;17.60;98.20;;;;;;5053687;28;20458;-78
2021/06/08 00:31:23;;;;;;;1.50;0.90;;;17.60;98.20;;;;;;5042669;28;20531;-78
2021/06/08 00:33:51;;;;;;;1.50;0.90;;;17.60;98.20;;;;;;5053649;28;20454;-78
2021/06/08 00:36:17;;;;;;;1.50;1.00;;;17.60;98.20;;;;;;5039357;28;20473;-79
2021/06/08 00:38:44;;;;;;;1.50;0.97;;;17.60;98.20;;;;;;5041537;28;20473;-78
2021/06/08 00:41:11;;;;;;;1.50;0.93;;;17.60;98.20;;;;;;5034374;28;20527;-78
2021/06/08 00:43:38;;;;;;;1.50;0.90;;;17.60;98.20;;;;;;5050362;28;20517;-78
2021/06/08 00:46:04;;;;;;;1.50;1.00;;;17.60;98.20;;;;;;5043219;28;21025;-78
2021/06/08 00:48:32;;;;;;;1.50;1.00;;;17.60;98.20;;;;;;5064443;28;20495;-79
2021/06/08 00:50:58;;;;;;;1.50;1.00;;;17.60;98.20;;;;;;5040679;28;20856;-78
2021/06/08 00:53:25;;;;;;;1.50;1.00;;;17.60;98.20;;;;;;5066283;28;20458;-78
2021/06/08 00:55:52;;;;;;;1.50;0.90;;;17.60;98.20;;;;;;5042060;28;20579;-78
2021/06/08 00:58:18;;;;;;;1.50;1.00;;;17.60;98.20;;;;;;5061394;28;20458;-78
2021/06/08 01:00:45;;;;;;;1.50;1.00;;;17.60;98.20;;;;;;5053591;28;20547;-79
2021/06/08 01:03:11;;;;;;;1.50;0.90;;;17.60;98.20;;;;;;5051864;28;20478;-79
2021/06/08 01:05:39;;;;;;;1.50;0.90;;;17.60;98.20;;;;;;5039715;28;20920;-79
2021/06/08 01:08:06;;;;;;;1.50;0.90;;;17.60;98.20;;;;;;5041041;28;20478;-78
2021/06/08 01:10:32;;;;;;;1.50;0.90;;;17.60;98.20;;;;;;5039595;28;20459;-79
2021/06/08 01:12:58;;;;;;;1.50;0.90;;;17.60;98.20;;;;;;5040864;28;20486;-78
2021/06/08 01:15:25;;;;;;;1.50;1.00;;;17.50;98.20;;;;;;5040783;28;20483;-78
2021/06/08 01:17:51;;;;;;;1.50;0.90;;;17.50;98.20;;;;;;5040125;28;20917;-78
2021/06/08 01:20:19;;;;;;;1.50;1.00;;;17.50;98.20;;;;;;5053070;28;20458;-79
2021/06/08 01:22:47;;;;;;;1.50;0.90;;;17.50;98.20;;;;;;5043127;28;20500;-80
2021/06/08 01:25:13;;;;;;;1.50;0.90;;;17.50;98.20;;;;;;5052191;28;20605;-78
2021/06/08 01:27:41;;;;;;;1.50;1.00;;;17.50;98.20;;;;;;5057223;28;20679;-78
2021/06/08 01:30:09;;;;;;;1.50;1.00;;;17.50;98.20;;;;;;5056105;28;20963;-78
2021/06/08 01:32:38;;;;;;;1.50;0.90;;;17.50;98.20;;;;;;5050480;28;20496;-78
2021/06/08 01:35:06;;;;;;;1.50;0.90;;;17.50;98.20;;;;;;5052325;28;20476;-77
2021/06/08 01:37:32;;;;;;;1.50;1.00;;;17.50;98.20;;;;;;5054626;28;20772;-78
2021/06/08 01:40:00;;;;;;;1.50;1.00;;;17.50;98.20;;;;;;5052286;28;20465;-78
2021/06/08 01:42:27;;;;;;;1.50;1.00;;;17.50;98.20;;;;;;5049284;28;20675;-78
2021/06/08 01:44:54;;;;;;;1.50;1.00;;;17.50;98.20;;;;;;5033184;28;20491;-78
2021/06/08 01:47:20;;;;;;;1.50;0.90;;;17.50;98.20;;;;;;5046533;28;20696;-78
2021/06/08 01:49:46;;;;;;;1.50;1.00;;;17.60;98.20;;;;;;5054361;28;20494;-78
2021/06/08 01:52:18;;;;;;;1.50;0.90;;;17.50;98.20;;;;;;5048791;28;20513;-78
2021/06/08 01:54:51;;;;;;;1.50;1.00;;;17.50;98.20;;;;;;5047264;28;20838;-78
2021/06/08 01:57:27;;;;;;;1.50;0.90;;;17.50;98.20;;;;;;5047388;28;21035;-78
2021/06/08 01:59:58;;;;;;;1.50;1.00;;;17.50;98.20;;;;;;5041365;28;20459;-77
2021/06/08 02:02:31;;;;;;;1.50;1.00;;;17.50;98.20;;;;;;5052002;28;20484;-78
2021/06/08 02:05:05;;;;;;;1.50;1.03;;;17.50;98.20;;;;;;5053038;28;20489;-78
2021/06/08 02:07:36;;;;;;;1.50;1.00;;;17.50;98.20;;;;;;5052548;28;20773;-78
2021/06/08 02:10:21;;;;;;;1.50;0.90;;;17.50;98.20;;;;;;5045695;28;20577;-77
2021/06/08 02:12:58;;;;;;;1.50;0.93;;;17.50;98.20;;;;;;5050074;28;20481;-78
2021/06/08 02:15:30;;;;;;;1.50;1.10;;;17.50;98.20;;;;;;5042612;28;20781;-78
2021/06/08 02:17:57;;;;;;;1.50;1.00;;;17.40;98.20;;;;;;5051640;28;20474;-78
2021/06/08 02:20:27;;;;;;;1.50;1.00;;;17.40;98.20;;;;;;5050865;28;20541;-78
2021/06/08 02:22:57;;;;;;;1.50;0.90;;;17.30;98.20;;;;;;5052839;28;20478;-78
2021/06/08 02:25:25;;;;;;;1.50;1.10;;;17.30;98.20;;;;;;5032212;28;20901;-80
2021/06/08 02:27:56;;;;;;;1.50;0.90;;;17.30;98.20;;;;;;5067231;28;20841;-78
2021/06/08 02:30:24;;;;;;;1.50;1.00;;;17.20;98.20;;;;;;5051446;28;20871;-78
2021/06/08 02:32:52;;;;;;;1.50;1.00;;;17.20;98.20;;;;;;5053872;28;20477;-78
2021/06/08 02:35:21;;;;;;;1.50;1.00;;;17.20;98.20;;;;;;5052060;28;20474;-79
2021/06/08 02:37:49;;;;;;;1.50;0.90;;;17.10;98.20;;;;;;5040105;28;20478;-79
2021/06/08 02:40:16;;;;;;;1.50;1.00;;;17.00;98.20;;;;;;5050578;28;20550;-78
2021/06/08 02:42:43;;;;;;;1.50;1.00;;;17.00;98.20;;;;;;5052645;28;20486;-79
2021/06/08 02:45:12;;;;;;;1.50;0.90;;;16.90;98.20;;;;;;5046036;28;20494;-79
2021/06/08 02:47:39;;;;;;;1.50;1.03;;;16.90;98.20;;;;;;5052694;28;21078;-78
2021/06/08 02:50:08;;;;;;;1.50;0.90;;;16.80;98.20;;;;;;5032017;28;20590;-78
2021/06/08 02:52:35;;;;;;;1.50;0.90;;;16.80;98.20;;;;;;5049096;28;20542;-78
2021/06/08 02:55:03;;;;;;;1.50;1.00;;;16.70;98.20;;;;;;5033877;28;21032;-79
2021/06/08 02:57:32;;;;;;;1.50;1.00;;;16.60;98.20;;;;;;5048526;28;20482;-78
2021/06/08 03:00:02;;;;;;;1.50;1.00;;;16.60;98.20;;;;;;5035024;28;20459;-78
2021/06/08 03:02:31;;;;;;;1.53;0.97;;;16.60;98.20;;;;;;5030164;28;20481;-79
2021/06/08 03:05:02;;;;;;;1.50;1.00;;;16.50;98.20;;;;;;5049264;28;20513;-79
2021/06/08 03:07:28;;;;;;;1.53;1.10;;;16.50;98.20;;;;;;5054648;28;20488;-79
2021/06/08 03:09:58;;;;;;;1.50;0.90;;;16.40;98.20;;;;;;5036643;28;20470;-78
2021/06/08 03:12:29;;;;;;;1.50;1.00;;;16.40;98.20;;;;;;5039117;28;20497;-79
2021/06/08 03:14:58;;;;;;;1.57;1.00;;;16.40;98.20;;;;;;5040610;28;20479;-79
2021/06/08 03:17:28;;;;;;;1.50;1.00;;;16.30;98.20;;;;;;5033208;28;20483;-79
2021/06/08 03:20:00;;;;;;;1.50;1.00;;;16.30;98.20;;;;;;5047790;28;20467;-78
2021/06/08 03:22:29;;;;;;;1.50;1.00;;;16.30;98.20;;;;;;5050811;28;21075;-78
2021/06/08 03:24:59;;;;;;;1.50;1.00;;;16.20;98.20;;;;;;5048145;28;20525;-78
2021/06/08 03:27:28;;;;;;;1.50;1.00;;;16.20;98.20;;;;;;5049133;28;20485;-79
2021/06/08 03:29:56;;;;;;;1.50;1.00;;;16.20;98.20;;;;;;5046284;28;20497;-80
2021/06/08 03:32:24;;;;;;;1.50;1.00;;;16.20;98.20;;;;;;5050808;28;20477;-79
2021/06/08 03:34:51;;;;;;;1.57;1.00;;;16.10;98.20;;;;;;5053826;28;20483;-79
2021/06/08 03:37:21;;;;;;;1.50;1.00;;;16.10;98.20;;;;;;5036493;28;21086;-79
2021/06/08 03:39:49;;;;;;;1.57;1.00;;;16.10;98.20;;;;;;5030537;28;20554;-80
2021/06/08 03:42:16;;;;;;;1.53;1.07;;;16.10;98.20;;;;;;5035102;28;20525;-79
2021/06/08 03:44:43;;;;;;;1.50;1.00;;;16.10;98.20;;;;;;5048727;28;20493;-79
2021/06/08 03:47:10;;;;;;;1.50;1.00;;;16.10;98.20;;;;;;5050183;28;20489;-79
2021/06/08 03:49:38;;;;;;;1.53;1.00;;;16.10;98.20;;;;;;5048989;28;20521;-79
2021/06/08 03:52:05;;;;;;;1.50;1.00;;;16.20;98.20;;;;;;5046946;28;20474;-78
2021/06/08 03:54:33;;;;;;;1.50;0.90;;;16.20;98.20;;;;;;5054434;28;20997;-78
2021/06/08 03:57:02;;;;;;;1.50;1.00;;;16.20;98.20;;;;;;5029324;28;20556;-78
2021/06/08 03:59:29;;;;;;;1.50;1.00;;;16.20;98.20;;;;;;5035990;28;20455;-79
2021/06/08 04:01:57;;;;;;;1.50;1.00;;;16.30;98.20;;;;;;5029886;28;20761;-79
2021/06/08 04:04:24;;;;;;;1.50;0.97;;;16.30;98.20;;;;;;5054065;28;20494;-80
2021/06/08 04:06:50;;;;;;;1.53;1.00;;;16.30;98.20;;;;;;5049106;28;20503;-79
2021/06/08 04:09:18;;;;;;;1.50;1.00;;;16.30;98.20;;;;;;5057534;28;20461;-79
2021/06/08 04:11:51;;;;;;;1.50;1.00;;;16.40;98.20;;;;;;5025515;28;20495;-79
2021/06/08 04:14:18;;;;;;;1.50;1.00;;;16.40;98.20;;;;;;5048603;28;20574;-78
2021/06/08 04:16:45;;;;;;;1.50;1.10;;;16.50;98.20;;;;;;5042091;28;20612;-79
2021/06/08 04:19:12;;;;;;;1.50;0.90;;;16.50;98.20;;;;;;5047439;28;20466;-79
2021/06/08 04:21:39;;;;;;;1.53;1.00;;;16.60;98.20;;;;;;5047919;28;20512;-79
2021/06/08 04:24:07;;;;;;;1.50;1.00;;;16.70;98.20;;;;;;5058908;28;20486;-79
2021/06/08 04:26:34;;;;;;;1.50;1.00;;;16.70;98.20;;;;;;5040391;28;20540;-79
2021/06/08 04:29:02;;;;;;;1.50;1.00;;;16.80;98.20;;;;;;5039443;28;20886;-79
2021/06/08 04:31:29;;;;;;;1.50;1.00;;;16.80;98.20;;;;;;5042920;28;20512;-79
2021/06/08 04:33:56;;;;;;;1.53;1.00;;;16.80;98.20;;;;;;5054056;28;20482;-79
2021/06/08 04:36:24;;;;;;;1.50;0.90;;;16.80;98.20;;;;;;5045500;28;20513;-79
2021/06/08 04:38:52;;;;;;;1.50;1.00;;;16.90;98.20;;;;;;5051767;28;20834;-79
2021/06/08 04:41:19;;;;;;;1.50;0.90;;;16.90;98.20;;;;;;5042031;28;20473;-79
2021/06/08 04:43:46;;;;;;;1.50;1.00;;;17.00;98.20;;;;;;5052559;28;20490;-79
2021/06/08 04:46:15;;;;;;;1.50;1.00;;;17.00;98.20;;;;;;5040086;28;20510;-79
2021/06/08 04:48:43;;;;;;;1.50;1.00;;;17.00;98.20;;;;;;5046641;28;20515;-79
2021/06/08 04:51:11;;;;;;;1.50;0.93;;;17.10;98.20;;;;;;5030211;28;20480;-79
2021/06/08 04:53:40;;;;;;;1.50;1.00;;;17.10;98.20;;;;;;5059788;28;20532;-79
2021/06/08 04:56:07;;;;;;;1.50;0.90;;;17.10;98.20;;;;;;5038227;28;21374;-78
2021/06/08 04:58:34;;;;;;;1.50;1.00;;;17.20;98.20;;;;;;5047979;28;20598;-78
2021/06/08 05:01:06;;;;;;;1.50;0.90;;;17.20;98.20;;;;;;5038467;28;20549;-78
2021/06/08 05:03:39;;;;;;;1.50;1.00;;;17.30;98.20;;;;;;5046738;28;20569;-78
2021/06/08 05:06:11;;;;;;;1.50;0.90;;;17.30;98.20;;;;;;5038957;28;20487;-79
2021/06/08 05:08:41;;;;;;;1.50;0.90;;;17.30;98.20;;;;;;5047935;28;20961;-78
2021/06/08 05:11:13;;;;;;;1.50;1.00;;;17.40;98.20;;;;;;5037500;28;20550;-78
2021/06/08 05:13:42;;;;;;;1.50;1.00;;;17.40;98.20;;;;;;5052457;28;20948;-78
2021/06/08 05:16:09;;;;;;;1.50;1.00;;;17.40;98.20;;;;;;5057740;28;20572;-79
2021/06/08 05:18:39;;;;;;;1.50;1.00;;;17.40;98.20;;;;;;5051590;28;20526;-79
2021/06/08 05:21:08;;;;;;;1.50;0.90;;;17.40;98.20;;;;;;5042434;28;20466;-79
2021/06/08 05:23:36;;;;;;;1.50;1.00;;;17.50;98.20;;;;;;5048495;28;20494;-79
2021/06/08 05:26:08;;;;;;;1.53;1.00;;;17.60;98.20;;;;;;5053294;28;20526;-79
2021/06/08 05:28:35;;;;;;;1.50;0.90;;;17.60;98.20;;;;;;5053955;28;20458;-79
2021/06/08 05:31:02;;;;;;;1.60;1.17;;;17.70;98.20;;;;;;5045711;28;20462;-79
2021/06/08 05:33:28;;;;;;;1.50;0.93;;;17.80;98.20;;;;;;5068146;28;20544;-79
2021/06/08 05:35:57;;;;;;;1.57;0.97;;;17.80;98.20;;;;;;5043357;28;20474;-76
2021/06/08 05:38:31;;;;;;;1.50;0.90;;;17.90;98.20;;;;;;5055009;28;20922;-76
2021/06/08 05:41:01;;;;;;;1.60;1.20;;;18.00;98.20;;;;;;5045126;28;21162;-80
2021/06/08 05:43:28;;;;;;;1.50;0.90;;;18.00;98.20;;;;;;5075931;28;20940;-76
2021/06/08 05:45:54;;;;;;;1.50;0.90;;;18.10;98.20;;;;;;5039519;28;20982;-76
2021/06/08 05:48:22;;;;;;;1.53;0.97;;;18.10;98.20;;;;;;5058519;28;20541;-76
2021/06/08 05:50:49;;;;;;;1.50;1.00;;;18.20;98.20;;;;;;5046747;28;20458;-76
2021/06/08 05:53:18;;;;;;;1.50;0.93;;;18.30;98.20;;;;;;5058404;28;20703;-77
2021/06/08 05:55:48;;;;;;;1.50;0.90;;;18.30;98.20;;;;;;5050088;28;20578;-78
2021/06/08 05:58:15;;;;;;;1.57;0.90;;;18.40;98.20;;;;;;5041938;28;20482;-78
2021/06/08 06:00:41;;;;;;;1.50;0.90;;;18.50;98.20;;;;;;5051958;28;20476;-78
2021/06/08 06:03:08;;;;;;;1.70;1.40;;;18.50;98.20;;;;;;5051045;28;20490;-78
2021/06/08 06:05:37;;;;;;;1.50;1.00;;;18.60;98.20;;;;;;5061243;28;21020;-78
2021/06/08 06:08:05;;;;;;;1.50;0.90;;;18.70;98.20;;;;;;5049994;28;20864;-79
2021/06/08 06:10:33;;;;;;;1.50;0.90;;;18.70;98.20;;;;;;5063112;28;20843;-78
2021/06/08 06:13:19;;;;;;;;;;;;;;;;;;;;;
2021/06/08 06:15:48;;;;;;;1.50;0.90;;;18.80;98.20;;;;;;5063390;28;20478;-79
2021/06/08 06:18:17;;;;;;;1.50;1.00;;;18.90;98.20;;;;;;5055413;28;20481;-76
2021/06/08 06:20:52;;;;;;;1.50;0.90;;;19.00;98.20;;;;;;5054556;28;20461;-78
2021/06/08 06:23:25;;;;;;;1.53;0.90;;;19.10;98.20;;;;;;5039790;28;20999;-76
2021/06/08 06:25:57;;;;;;;1.50;0.90;;;19.10;98.20;;;;;;5046315;28;20822;-79
2021/06/08 06:28:27;;;;;;;1.50;0.90;;;19.10;98.20;;;;;;5070948;28;20537;-78
2021/06/08 06:30:59;;;;;;;1.50;0.90;;;19.20;98.20;;;;;;5052331;28;20467;-78
2021/06/08 06:33:29;;;;;;;1.53;1.00;;;19.30;98.20;;;;;;5067119;28;20465;-78
2021/06/08 06:36:03;;;;;;;1.50;0.90;;;19.40;98.20;;;;;;5045666;28;20838;-78
2021/06/08 06:38:35;;;;;;;1.50;0.90;;;19.50;98.20;;;;;;5055682;28;20468;-78
2021/06/08 06:41:06;;;;;;;1.50;0.90;;;19.60;98.20;;;;;;5042685;28;20903;-79
2021/06/08 06:43:38;;;;;;;1.53;1.00;;;19.60;98.20;;;;;;5058965;28;20830;-78
2021/06/08 06:46:09;;;;;;;1.50;1.00;;;19.70;98.20;;;;;;5042701;28;20470;-78
2021/06/08 06:48:36;;;;;;;1.50;1.00;;;19.80;98.20;;;;;;5063220;28;20554;-78
2021/06/08 06:51:03;;;;;;;1.50;0.90;;;19.70;98.20;;;;;;5039860;28;20473;-75
2021/06/08 06:53:33;;;;;;;1.50;0.90;;;19.80;98.20;;;;;;5051220;28;20466;-77
2021/06/08 06:56:05;;;;;;;1.53;0.90;;;19.80;98.20;;;;;;5043598;28;21012;-78
2021/06/08 06:58:32;;;;;;;1.50;0.90;;;19.90;98.20;;;;;;5061036;28;20451;-76
2021/06/08 07:01:00;;;;;;;1.60;1.00;;;19.90;98.20;;;;;;5026492;28;21068;-76
2021/06/08 07:03:30;;;;;;;1.50;0.90;;;20.00;98.20;;;;;;5115050;22;20424;-77
2021/06/08 07:05:57;;;;;;;1.50;0.90;;;20.00;98.20;;;;;;5038901;28;20634;-77
2021/06/08 07:08:25;;;;;;;1.50;0.90;;;20.10;98.20;;;;;;5039730;28;20569;-77
2021/06/08 07:10:53;;;;;;;1.53;0.90;;;20.20;98.20;;;;;;5031508;28;20844;-77
2021/06/08 07:13:21;;;;;;;1.50;1.00;;;20.20;98.20;;;;;;5045010;28;20764;-77
2021/06/08 07:15:48;;;;;;;1.50;0.90;;;20.30;98.20;;;;;;5018615;28;20470;-77
2021/06/08 07:18:15;;;;;;;1.50;0.90;;;20.40;98.20;;;;;;5032282;28;20474;-77
2021/06/08 07:20:42;;;;;;;1.50;0.90;;;20.40;98.20;;;;;;5033903;28;20485;-77
2021/06/08 07:23:09;;;;;;;1.53;0.90;;;20.50;98.20;;;;;;5021871;28;20497;-77
2021/06/08 07:25:37;;;;;;;1.50;1.00;;;20.60;98.20;;;;;;5026912;28;20513;-76
2021/06/08 07:28:05;;;;;;;1.50;0.93;;;20.70;98.20;;;;;;5016365;28;20503;-77
2021/06/08 07:30:34;;;;;;;1.50;0.90;;;20.80;98.20;;;;;;5046309;28;20461;-77
2021/06/08 07:33:09;;;;;;;1.50;0.90;;;20.90;98.20;;;;;;5006986;28;20492;-77
2021/06/08 07:35:40;;;;;;;1.50;0.90;;;21.10;98.20;;;;;;5031145;28;20490;-76
2021/06/08 07:38:16;;;;;;;1.50;0.90;;;21.20;97.70;;;;;;5012743;28;20577;-77
2021/06/08 07:40:49;;;;;;;1.50;0.90;;;21.20;98.20;;;;;;5028604;28;21008;-77
2021/06/08 07:43:20;;;;;;;1.50;0.90;;;21.30;97.80;;;;;;5003753;28;20492;-77
2021/06/08 07:45:51;;;;;;;1.50;0.90;;;21.40;97.30;;;;;;5007903;28;20659;-77
2021/06/08 07:48:22;;;;;;;1.50;0.90;;;21.50;97.30;;;;;;5039630;28;20477;-77
2021/06/08 07:50:52;;;;;;;1.50;0.90;;;21.70;96.60;;;;;;5023050;28;20459;-77
2021/06/08 07:53:19;;;;;;;1.50;0.90;;;21.90;96.50;;;;;;5025960;28;20974;-77
2021/06/08 07:55:48;;;;;;;1.53;0.90;;;21.90;95.70;;;;;;5031031;28;20486;-77
2021/06/08 07:58:22;;;;;;;1.50;0.90;;;21.90;95.90;;;;;;4998444;28;20476;-77
2021/06/08 08:00:50;;;;;;;1.50;0.90;;;22.00;95.80;;;;;;5009230;28;20873;-77
2021/06/08 08:03:27;;;;;;;1.50;0.90;;;22.20;95.10;;;;;;5039958;28;21002;-77
2021/06/08 08:05:55;;;;;;;1.53;0.90;;;22.40;95.10;;;;;;5015062;28;20532;-74
2021/06/08 08:08:21;;;;;;;1.53;0.90;;;22.50;94.20;;;;;;5031318;28;20531;-76
2021/06/08 08:10:49;;;;;;;1.50;0.83;;;22.80;93.50;;;;;;5019695;28;20520;-76
2021/06/08 08:13:21;;;;;;;1.50;0.87;;;23.00;92.70;;;;;;5032952;28;20928;-76
2021/06/08 08:15:49;;;;;;;1.50;0.90;;;23.20;92.50;;;;;;5027632;28;20462;-77
2021/06/08 08:18:16;;;;;;;1.53;0.90;;;23.40;92.20;;;;;;5031736;28;20612;-77
2021/06/08 08:20:46;;;;;;;1.50;0.90;;;23.70;91.00;;;;;;5032375;28;20471;-77
2021/06/08 08:23:13;;;;;;;1.50;0.87;;;23.90;89.10;;;;;;5003594;28;20560;-77
2021/06/08 08:25:40;;;;;;;1.80;1.00;;;23.90;89.10;;;;;;5035216;28;20482;-76
2021/06/08 08:28:08;;;;;;;1.50;0.90;;;24.10;88.60;;;;;;5021371;28;20495;-76
2021/06/08 08:30:35;;;;;;;1.50;0.90;;;24.20;88.50;;;;;;5042125;28;20466;-76
2021/06/08 08:33:03;;;;;;;1.53;0.90;;;24.30;86.60;;;;;;5013141;28;20489;-77
2021/06/08 08:35:30;;;;;;;1.50;0.90;;;24.30;87.50;;;;;;5032036;28;20494;-77
2021/06/08 08:37:56;;;;;;;1.50;0.90;;;24.40;87.20;;;;;;5015548;28;20483;-76
2021/06/08 08:40:24;;;;;;;1.53;0.90;;;24.40;86.30;;;;;;5041324;28;20462;-77
2021/06/08 08:42:50;;;;;;;1.50;0.90;;;24.40;85.80;;;;;;5015536;28;20494;-77
2021/06/08 08:45:17;;;;;;;1.50;0.90;;;24.50;86.40;;;;;;5040306;28;20573;-76
2021/06/08 08:47:44;;;;;;;1.50;0.90;;;24.50;85.40;;;;;;5019606;28;20500;-77
2021/06/08 08:50:14;;;;;;;1.50;0.90;;;24.70;86.30;;;;;;5040992;28;21045;-77
2021/06/08 08:52:44;;;;;;;2.07;1.73;;;24.80;85.60;;;;;;5015099;28;21087;-77
2021/06/08 08:55:12;;;;;;;1.50;0.90;;;24.90;86.80;;;;;;5035928;28;20567;-76
2021/06/08 08:57:39;;;;;;;1.50;0.90;;;25.10;86.10;;;;;;5019871;28;20926;-77
2021/06/08 09:00:07;;;;;;;1.53;0.90;;;25.20;84.40;;;;;;5033612;28;20458;-77
2021/06/08 09:02:35;;;;;;;1.50;0.83;;;25.40;84.80;;;;;;5020116;28;21003;-77
2021/06/08 09:05:02;;;;;;;1.50;0.90;;;25.70;83.90;;;;;;5027938;28;20495;-77
2021/06/08 09:07:30;;;;;;;1.50;0.90;;;25.80;82.90;;;;;;5011662;28;20518;-77
2021/06/08 09:09:56;;;;;;;1.50;0.80;;;25.90;83.30;;;;;;5027900;28;20462;-76
2021/06/08 09:12:22;;;;;;;1.50;0.90;;;26.00;82.50;;;;;;5023904;28;21012;-77
2021/06/08 09:14:49;;;;;;;1.50;0.90;;;25.90;82.60;;;;;;5022202;28;20479;-77
2021/06/08 09:17:18;;;;;;;1.50;0.90;;;25.90;82.70;;;;;;5020031;28;20491;-77
2021/06/08 09:19:44;;;;;;;1.50;1.00;;;26.10;83.50;;;;;;5014973;28;20972;-77
2021/06/08 09:22:13;;;;;;;1.50;0.90;;;26.00;82.70;;;;;;5032093;28;20486;-77
2021/06/08 09:24:44;;;;;;;1.50;0.80;;;25.90;81.60;;;;;;5030611;28;20493;-77
2021/06/08 09:27:12;;;;;;;1.50;0.90;;;25.70;83.10;;;;;;5025002;28;20511;-77
2021/06/08 09:29:40;;;;;;;1.50;0.90;;;25.50;83.00;;;;;;5040152;28;20458;-77
2021/06/08 09:32:21;;;;;;;1.50;0.93;;;25.30;84.10;;;;;;5021143;28;20485;-77
2021/06/08 09:34:50;;;;;;;1.50;0.80;;;25.00;84.00;;;;;;5024452;28;20780;-77
2021/06/08 09:37:30;;;;;;;1.50;0.90;;;24.80;84.30;;;;;;5022921;28;20476;-77
2021/06/08 09:39:58;;;;;;;1.50;0.80;;;24.80;84.10;;;;;;5032193;28;20459;-77
2021/06/08 09:42:26;;;;;;;1.50;0.90;;;24.80;85.50;;;;;;5029279;28;20870;-77
2021/06/08 09:44:52;;;;;;;1.50;0.90;;;24.70;84.60;;;;;;5033547;28;21069;-77
2021/06/08 09:47:26;;;;;;;1.50;0.80;;;24.70;84.30;;;;;;5019251;28;21082;-77
2021/06/08 09:49:52;;;;;;;1.50;0.90;;;24.60;83.40;;;;;;5031357;28;20954;-78
2021/06/08 09:52:20;;;;;;;1.50;0.93;;;24.70;83.30;;;;;;5038879;28;20478;-78
2021/06/08 09:54:50;;;;;;;1.50;0.90;;;24.80;84.20;;;;;;5037530;28;21073;-78
2021/06/08 09:57:20;;;;;;;1.50;0.90;;;25.10;83.00;;;;;;5023215;28;20573;-78
2021/06/08 09:59:49;;;;;;;1.40;0.83;;;25.30;82.70;;;;;;5018996;28;20869;-78
2021/06/08 10:02:44;;;;;;;1.50;0.80;;;25.50;79.80;;;;;;5013055;28;20553;-78
2021/06/08 10:05:25;;;;;;;1.50;0.80;;;25.70;82.10;;;;;;5038298;28;20920;-78
2021/06/08 10:08:04;;;;;;;1.50;0.80;;;25.90;80.40;;;;;;5020332;28;20577;-77
2021/06/08 10:10:36;;;;;;;1.50;0.90;;;26.00;80.20;;;;;;5038599;28;20474;-79
2021/06/08 10:13:05;;;;;;;1.50;0.80;;;26.10;79.70;;;;;;5025667;28;20886;-77
2021/06/08 10:15:33;;;;;;;1.50;0.80;;;26.00;80.50;;;;;;5034774;28;20927;-77
2021/06/08 10:18:05;;;;;;;1.50;0.80;;;26.00;80.30;;;;;;5021681;28;21016;-77
2021/06/08 10:20:34;;;;;;;1.50;0.87;;;26.10;81.30;;;;;;5033489;28;20549;-78
2021/06/08 10:23:16;;;;;;;1.53;1.10;;;26.10;79.00;;;;;;5018872;28;20577;-77
2021/06/08 10:25:43;;;;;;;1.50;0.80;;;26.10;79.30;;;;;;5037851;28;20490;-77
2021/06/08 10:28:12;;;;;;;1.47;0.80;;;26.30;79.60;;;;;;5019719;28;20533;-77
2021/06/08 10:30:39;;;;;;;1.50;0.90;;;26.50;79.30;;;;;;5042623;28;20553;-77
2021/06/08 10:33:05;;;;;;;1.50;0.90;;;26.80;78.50;;;;;;5015873;28;20844;-77
2021/06/08 10:35:32;;;;;;;1.50;1.00;;;27.00;77.90;;;;;;5036029;28;20478;-77
2021/06/08 10:37:59;;;;;;;1.50;0.90;;;27.00;75.80;;;;;;5015344;28;20542;-77
2021/06/08 10:40:25;;;;;;;1.50;0.80;;;26.90;76.40;;;;;;5006449;28;20464;-77
2021/06/08 10:42:52;;;;;;;1.50;0.87;;;26.90;77.90;;;;;;5010956;28;20494;-77
2021/06/08 10:45:20;;;;;;;1.47;0.80;;;27.00;76.50;;;;;;5039806;28;20540;-77
2021/06/08 10:47:53;;;;;;;1.50;0.90;;;26.90;77.30;;;;;;5032301;28;20481;-77
2021/06/08 10:50:24;;;;;;;1.50;0.80;;;26.90;77.30;;;;;;5019379;28;20470;-77
2021/06/08 10:52:55;;;;;;;1.50;0.87;;;26.90;76.90;;;;;;5029596;28;20489;-77
2021/06/08 10:55:25;;;;;;;1.50;0.80;;;26.90;76.40;;;;;;5028212;28;20539;-77
2021/06/08 10:57:52;;;;;;;1.50;0.90;;;26.80;76.90;;;;;;5015886;28;20870;-78
2021/06/08 11:00:40;;;;;;;1.50;0.90;;;26.80;77.20;;;;;;5037235;28;20636;-78
2021/06/08 11:03:11;;;;;;;1.47;0.80;;;26.70;77.00;;;;;;5031045;28;20482;-78
2021/06/08 11:05:54;;;;;;;1.50;0.80;;;26.70;76.60;;;;;;5021594;28;20483;-78
2021/06/08 11:08:59;;;;;;;1.50;0.80;;;26.70;76.00;;;;;;4995291;28;20479;-78
2021/06/08 11:12:03;;;;;;;1.50;0.80;;;26.60;75.90;;;;;;5119385;22;21059;-79
2021/06/08 11:15:32;;;;;;;1.50;0.90;;;26.40;77.20;;;;;;4973264;28;20776;-78
2021/06/08 11:18:01;;;;;;;1.43;0.90;;;26.30;78.10;;;;;;4914448;28;20479;-78
2021/06/08 11:20:34;;;;;;;1.40;0.80;;;26.40;76.90;;;;;;4979531;28;20925;-79
2021/06/08 11:23:02;;;;;;;1.50;1.10;;;26.40;77.80;;;;;;5021423;28;20481;-79
2021/06/08 11:25:54;;;;;;;1.50;0.80;;;26.50;78.50;;;;;;5050277;28;20938;-78
2021/06/08 11:28:21;;;;;;;1.50;0.80;;;26.70;76.90;;;;;;5037355;28;20581;-79
2021/06/08 11:31:22;;;;;;;1.50;0.90;;;26.70;77.50;;;;;;5052773;28;20477;-79
2021/06/08 11:34:38;;;;;;;1.50;0.90;;;26.80;75.90;;;;;;5060560;28;20460;-79
2021/06/08 11:37:45;;;;;;;1.47;0.80;;;26.80;75.10;;;;;;5052638;28;20564;-78
2021/06/08 11:41:20;;;;;;;1.50;0.80;;;26.80;76.70;;;;;;5071061;28;20480;-79
2021/06/08 11:44:00;;;;;;;1.47;0.80;;;26.80;78.00;;;;;;5044998;28;21001;-78
2021/06/08 11:46:35;;;;;;;1.50;0.80;;;26.80;76.80;;;;;;5053739;28;20603;-81
2021/06/08 11:49:15;;;;;;;1.50;0.80;;;26.80;77.60;;;;;;5068077;28;20993;-80
2021/06/08 11:51:47;;;;;;;1.50;0.80;;;26.70;75.90;;;;;;5046359;28;20571;-81
2021/06/08 11:54:16;;;;;;;1.50;0.80;;;26.60;76.70;;;;;;5060528;28;20465;-80
2021/06/08 11:56:52;;;;;;;1.50;0.80;;;26.40;77.40;;;;;;5048322;28;20489;-80
2021/06/08 11:59:20;;;;;;;1.50;0.87;;;26.30;77.80;;;;;;5054657;28;20462;-79
2021/06/08 12:01:48;;;;;;;1.47;0.97;;;26.20;77.80;;;;;;5045710;28;20494;-79
2021/06/08 12:04:16;;;;;;;1.50;0.83;;;26.30;77.10;;;;;;5059187;28;20483;-79
2021/06/08 12:07:13;;;;;;;1.60;0.97;;;26.30;77.10;;;;;;5055013;28;20484;-80
2021/06/08 12:09:45;;;;;;;1.47;0.90;;;26.30;78.30;;;;;;5031255;28;20659;-81
2021/06/08 12:12:13;;;;;;;1.50;0.90;;;26.50;77.60;;;;;;5040665;28;20990;-81
2021/06/08 12:14:48;;;;;;;1.43;0.80;;;26.60;77.40;;;;;;5060376;28;20464;-81
2021/06/08 12:17:14;;;;;;;1.50;0.90;;;26.90;77.10;;;;;;5046022;28;20501;-82
2021/06/08 12:19:43;;;;;;;1.50;0.87;;;27.10;78.40;;;;;;5064228;28;20458;-79
2021/06/08 12:22:21;;;;;;;1.50;0.90;;;27.20;76.00;;;;;;5054919;28;20484;-81
2021/06/08 12:24:56;;;;;;;1.50;0.90;;;27.30;75.10;;;;;;5069104;28;20491;-80
2021/06/08 12:27:37;;;;;;;1.50;0.80;;;27.30;75.60;;;;;;5061514;28;20477;-79
2021/06/08 12:30:05;;;;;;;1.43;0.80;;;27.30;73.90;;;;;;5072391;28;20539;-82
2021/06/08 12:32:31;;;;;;;1.50;0.80;;;27.30;73.50;;;;;;5061799;28;20485;-82
2021/06/08 12:34:59;;;;;;;1.50;0.80;;;27.40;74.00;;;;;;5069034;28;20453;-81
2021/06/08 12:37:26;;;;;;;1.50;0.90;;;27.50;73.70;;;;;;5061551;28;20494;-80
2021/06/08 12:39:54;;;;;;;1.50;0.80;;;27.60;73.50;;;;;;5069198;28;20855;-80
2021/06/08 12:42:22;;;;;;;1.50;0.90;;;27.90;73.30;;;;;;5046513;28;21092;-80
2021/06/08 12:44:52;;;;;;;1.50;0.90;;;28.20;73.20;;;;;;5066956;28;20538;-81
2021/06/08 12:47:21;;;;;;;1.50;0.80;;;28.50;72.00;;;;;;5061642;28;22139;-79
2021/06/08 12:49:48;;;;;;;1.50;0.90;;;28.70;71.40;;;;;;5064789;28;20464;-78
2021/06/08 12:52:18;;;;;;;1.50;0.80;;;28.80;72.20;;;;;;5055898;28;20719;-77
2021/06/08 12:54:46;;;;;;;1.50;0.90;;;28.80;70.70;;;;;;5068531;28;20460;-77
2021/06/08 12:57:22;;;;;;;1.47;0.80;;;28.70;71.70;;;;;;5064189;28;20597;-78
2021/06/08 13:02:34;;;;;;;1.50;0.80;;;29.00;70.90;;;;;;5059166;28;20471;-78
2021/06/08 13:05:03;;;;;;;1.50;0.80;;;29.10;70.50;;;;;;5071620;28;20477;-77
2021/06/08 13:07:34;;;;;;;1.50;0.80;;;29.10;70.50;;;;;;5046518;28;20488;-78